createdAt,value
2022-10-12T00:02:04.167Z,3.73
2022-10-12T00:04:32.283Z,3.85
2022-10-12T00:06:59.237Z,3.91
2022-10-12T00:09:31.434Z,3.88
2022-10-12T00:11:59.532Z,3.92
2022-10-12T00:14:27.486Z,3.93
2022-10-12T00:16:55.482Z,3.88
2022-10-12T00:19:25.438Z,3.91
2022-10-12T00:21:52.442Z,4.01
2022-10-12T00:24:20.438Z,4.04
2022-10-12T00:26:50.676Z,3.90
2022-10-12T00:29:19.164Z,3.60
2022-10-12T00:31:46.165Z,3.37
2022-10-12T00:34:15.594Z,3.16
2022-10-12T00:36:42.677Z,3.43
2022-10-12T00:39:11.258Z,3.31
2022-10-12T00:41:44.286Z,3.18
2022-10-12T00:44:38.061Z,3.31
2022-10-12T00:47:16.438Z,3.25
2022-10-12T00:49:51.625Z,2.84
2022-10-12T00:52:24.013Z,2.63
2022-10-12T00:54:53.963Z,2.60
2022-10-12T00:57:22.873Z,2.52
2022-10-12T01:00:06.949Z,2.59
2022-10-12T01:02:38.547Z,2.41
2022-10-12T01:05:09.207Z,2.29
2022-10-12T01:07:36.639Z,2.28
2022-10-12T01:10:04.361Z,2.58
2022-10-12T01:12:38.903Z,2.70
2022-10-12T01:15:07.833Z,2.89
2022-10-12T01:18:32.117Z,2.84
2022-10-12T01:21:10.223Z,2.85
2022-10-12T01:24:18.895Z,2.84
2022-10-12T01:27:03.582Z,2.68
2022-10-12T01:30:09.154Z,2.59
2022-10-12T01:32:53.005Z,2.75
2022-10-12T01:35:21.793Z,2.64
2022-10-12T01:37:51.799Z,2.75
2022-10-12T01:40:33.922Z,2.82
2022-10-12T01:43:02.739Z,2.80
2022-10-12T01:45:30.727Z,2.71
2022-10-12T01:48:00.057Z,2.66
2022-10-12T01:50:40.121Z,2.60
2022-10-12T01:53:28.153Z,2.47
2022-10-12T01:56:03.182Z,2.51
2022-10-12T01:58:57.662Z,2.55
2022-10-12T02:01:45.115Z,2.33
2022-10-12T02:04:39.903Z,2.09
2022-10-12T02:07:42.997Z,2.51
2022-10-12T02:10:23.778Z,2.63
2022-10-12T02:12:57.703Z,2.51
2022-10-12T02:15:27.697Z,2.45
2022-10-12T02:17:58.757Z,2.10
2022-10-12T02:20:28.126Z,2.05
2022-10-12T02:22:56.119Z,2.13
2022-10-12T02:25:28.668Z,2.16
2022-10-12T02:28:27.983Z,2.15
2022-10-12T02:31:16.124Z,2.17
2022-10-12T02:33:57.090Z,2.29
2022-10-12T02:36:33.613Z,2.34
2022-10-12T02:39:07.863Z,2.36
2022-10-12T02:41:41.319Z,2.04
2022-10-12T02:44:11.016Z,1.96
2022-10-12T02:46:40.507Z,2.19
2022-10-12T02:49:12.039Z,2.34
2022-10-12T02:51:40.837Z,2.48
2022-10-12T02:54:08.881Z,2.58
2022-10-12T02:56:47.317Z,2.48
2022-10-12T02:59:16.086Z,2.50
2022-10-12T03:01:43.470Z,2.55
2022-10-12T03:04:13.748Z,2.37
2022-10-12T03:06:42.667Z,2.08
2022-10-12T03:09:15.898Z,1.97
2022-10-12T03:11:44.924Z,1.96
2022-10-12T03:14:19.695Z,1.76
2022-10-12T03:16:46.907Z,1.64
2022-10-12T03:19:14.438Z,1.87
2022-10-12T03:21:41.902Z,1.88
2022-10-12T03:24:10.054Z,1.99
2022-10-12T03:26:38.044Z,1.90
2022-10-12T03:29:05.601Z,1.95
2022-10-12T03:31:34.553Z,1.85
2022-10-12T03:34:01.645Z,1.61
2022-10-12T03:36:28.769Z,1.63
2022-10-12T03:38:55.877Z,1.70
2022-10-12T03:41:22.966Z,2.01
2022-10-12T03:43:49.933Z,2.05
2022-10-12T03:46:17.003Z,2.00
2022-10-12T03:48:44.017Z,1.80
2022-10-12T03:51:12.118Z,1.57
2022-10-12T03:53:45.492Z,1.53
2022-10-12T03:56:13.036Z,1.41
2022-10-12T03:58:40.022Z,1.57
2022-10-12T04:01:07.077Z,1.53
2022-10-12T04:03:34.063Z,1.36
2022-10-12T04:06:01.067Z,1.26
2022-10-12T04:08:28.743Z,1.31
2022-10-12T04:10:55.738Z,1.20
2022-10-12T04:13:23.214Z,1.27
2022-10-12T04:15:50.203Z,1.28
2022-10-12T04:18:18.327Z,1.22
2022-10-12T04:20:48.603Z,1.53
2022-10-12T04:23:16.588Z,1.60
2022-10-12T04:25:43.756Z,1.60
2022-10-12T04:28:10.832Z,1.35
2022-10-12T04:30:37.994Z,1.29
2022-10-12T04:33:05.707Z,1.11
2022-10-12T04:35:32.871Z,1.13
2022-10-12T04:37:59.989Z,1.45
2022-10-12T04:40:26.973Z,1.59
2022-10-12T04:42:53.977Z,1.37
2022-10-12T04:45:21.030Z,1.25
2022-10-12T04:47:49.428Z,1.07
2022-10-12T04:50:16.443Z,1.25
2022-10-12T04:52:43.502Z,1.25
2022-10-12T04:55:10.557Z,1.23
2022-10-12T04:57:37.757Z,1.09
2022-10-12T05:00:06.026Z,0.91
2022-10-12T05:02:33.012Z,0.89
2022-10-12T05:05:02.204Z,1.15
2022-10-12T05:07:29.217Z,1.10
2022-10-12T05:09:56.204Z,1.18
2022-10-12T05:12:23.228Z,0.95
2022-10-12T05:14:50.174Z,0.86
2022-10-12T05:17:18.169Z,0.80
2022-10-12T05:19:45.218Z,0.65
2022-10-12T05:22:12.249Z,0.74
2022-10-12T05:24:40.219Z,1.11
2022-10-12T05:27:08.233Z,1.08
2022-10-12T05:29:36.219Z,0.89
2022-10-12T05:32:05.355Z,0.96
2022-10-12T05:34:33.786Z,0.87
2022-10-12T05:37:00.741Z,0.90
2022-10-12T05:39:28.049Z,0.96
2022-10-12T05:41:56.075Z,1.15
2022-10-12T05:44:23.237Z,1.31
2022-10-12T05:46:50.224Z,1.47
2022-10-12T05:49:18.261Z,1.55
2022-10-12T05:51:45.197Z,1.41
2022-10-12T05:54:12.390Z,1.47
2022-10-12T05:56:39.457Z,1.21
2022-10-12T05:59:06.503Z,1.11
2022-10-12T06:01:33.524Z,1.06
2022-10-12T06:04:00.617Z,1.17
2022-10-12T06:06:27.604Z,1.28
2022-10-12T06:08:54.537Z,1.54
2022-10-12T06:11:21.803Z,1.63
2022-10-12T06:13:48.799Z,1.80
2022-10-12T06:16:15.826Z,1.93
2022-10-12T06:18:42.737Z,1.77
2022-10-12T06:21:31.961Z,1.84
2022-10-12T06:23:56.747Z,1.95
2022-10-12T06:26:25.066Z,2.24
2022-10-12T06:28:52.161Z,2.25
2022-10-12T06:31:19.197Z,2.42
2022-10-12T06:33:46.099Z,2.40
2022-10-12T06:36:13.089Z,2.52
2022-10-12T06:38:41.027Z,2.55
2022-10-12T06:41:08.123Z,2.70
2022-10-12T06:43:35.213Z,2.95
2022-10-12T06:46:03.355Z,3.09
2022-10-12T06:48:30.562Z,3.36
2022-10-12T06:50:57.544Z,3.49
2022-10-12T06:53:25.858Z,3.48
2022-10-12T06:55:52.827Z,3.61
2022-10-12T06:58:19.846Z,3.82
2022-10-12T07:00:46.866Z,4.03
2022-10-12T07:03:14.585Z,4.25
2022-10-12T07:05:41.607Z,4.52
2022-10-12T07:08:08.676Z,4.78
2022-10-12T07:10:35.704Z,5.00
2022-10-12T07:13:02.682Z,5.14
2022-10-12T07:15:29.610Z,5.33
2022-10-12T07:17:56.618Z,5.49
2022-10-12T07:20:23.653Z,5.80
2022-10-12T07:22:50.734Z,6.12
2022-10-12T07:25:17.787Z,6.33
2022-10-12T07:30:36.073Z,6.73
2022-10-12T07:33:03.145Z,6.92
2022-10-12T07:35:30.148Z,7.00
2022-10-12T07:37:57.069Z,7.14
2022-10-12T07:40:26.577Z,7.36
2022-10-12T07:43:14.723Z,7.57
2022-10-12T07:45:41.515Z,7.82
2022-10-12T07:48:08.502Z,8.03
2022-10-12T07:50:35.535Z,8.26
2022-10-12T07:53:03.516Z,8.39
2022-10-12T07:55:32.287Z,8.44
2022-10-12T07:58:00.301Z,8.61
2022-10-12T08:00:28.926Z,8.84
2022-10-12T08:02:56.112Z,9.04
2022-10-12T08:05:23.590Z,9.30
2022-10-12T08:07:52.093Z,9.41
2022-10-12T08:10:20.302Z,9.52
2022-10-12T08:12:51.874Z,9.63
2022-10-12T08:15:19.413Z,9.92
2022-10-12T08:17:47.542Z,10.05
2022-10-12T08:23:00.069Z,10.43
2022-10-12T08:25:27.297Z,10.48
2022-10-12T08:27:55.597Z,10.60
2022-10-12T08:30:27.081Z,10.87
2022-10-12T08:32:54.253Z,11.10
2022-10-12T08:35:21.362Z,11.33
2022-10-12T08:37:48.394Z,11.60
2022-10-12T08:40:27.067Z,11.85
2022-10-12T08:42:59.597Z,12.14
2022-10-12T08:45:51.565Z,12.44
2022-10-12T08:48:24.539Z,12.72
2022-10-12T08:50:59.245Z,13.04
2022-10-12T08:53:44.505Z,13.35
2022-10-12T08:56:15.883Z,14.17
2022-10-12T08:58:44.317Z,15.42
2022-10-12T09:01:37.512Z,16.70
2022-10-12T09:04:16.628Z,18.38
2022-10-12T09:06:47.893Z,18.13
2022-10-12T09:09:23.970Z,18.81
2022-10-12T09:11:58.757Z,19.84
2022-10-12T09:14:30.963Z,20.98
2022-10-12T09:17:00.636Z,21.60
2022-10-12T09:20:02.578Z,22.15
2022-10-12T09:22:30.699Z,22.02
2022-10-12T09:24:59.592Z,22.33
2022-10-12T09:27:31.244Z,22.83
2022-10-12T09:30:04.646Z,23.31
2022-10-12T09:32:36.665Z,23.66
2022-10-12T09:35:04.672Z,23.99
2022-10-12T09:37:33.539Z,23.95
2022-10-12T09:40:01.604Z,24.01
2022-10-12T09:42:28.570Z,24.16
2022-10-12T09:45:18.909Z,23.54
2022-10-12T09:48:12.659Z,24.36
2022-10-12T09:50:52.337Z,23.67
2022-10-12T09:53:28.167Z,22.98
2022-10-12T09:56:02.958Z,22.22
2022-10-12T09:58:30.772Z,21.40
2022-10-12T10:01:19.590Z,20.60
2022-10-12T10:03:48.753Z,21.67
2022-10-12T10:06:24.955Z,22.65
2022-10-12T10:08:53.756Z,22.20
2022-10-12T10:11:28.305Z,21.95
2022-10-12T10:13:55.842Z,21.15
2022-10-12T10:16:26.285Z,22.64
2022-10-12T10:18:58.879Z,23.47
2022-10-12T10:21:36.526Z,23.33
2022-10-12T10:24:19.512Z,21.77
2022-10-12T10:26:58.460Z,23.04
2022-10-12T10:29:33.078Z,23.62
2022-10-12T10:32:30.198Z,23.00
2022-10-12T10:35:12.239Z,24.36
2022-10-12T10:37:49.713Z,25.51
2022-10-12T10:40:31.102Z,24.96
2022-10-12T10:43:18.937Z,24.96
2022-10-12T10:45:52.986Z,25.81
2022-10-12T10:48:28.225Z,26.57
2022-10-12T10:51:01.515Z,26.00
2022-10-12T10:53:33.554Z,24.45
2022-10-12T10:56:09.373Z,23.99
2022-10-12T10:58:38.368Z,23.11
2022-10-12T11:01:31.791Z,22.48
2022-10-12T11:04:11.750Z,23.11
2022-10-12T11:06:47.185Z,23.69
2022-10-12T11:09:20.789Z,23.29
2022-10-12T11:12:02.834Z,22.63
2022-10-12T11:14:37.437Z,22.56
2022-10-12T11:17:13.106Z,23.25
2022-10-12T11:20:02.218Z,23.97
2022-10-12T11:22:32.646Z,23.28
2022-10-12T11:25:06.740Z,22.34
2022-10-12T11:27:41.955Z,22.01
2022-10-12T11:30:21.257Z,21.47
2022-10-12T11:33:08.934Z,21.26
2022-10-12T11:35:44.518Z,21.54
2022-10-12T11:38:40.603Z,21.75
2022-10-12T11:44:31.804Z,24.16
2022-10-12T11:47:06.683Z,24.16
2022-10-12T11:49:52.076Z,23.53
2022-10-12T11:52:23.837Z,23.14
2022-10-12T11:55:01.205Z,23.42
2022-10-12T11:57:34.268Z,23.34
2022-10-12T12:00:29.917Z,24.24
2022-10-12T12:03:17.791Z,25.51
2022-10-12T12:05:46.897Z,25.70
2022-10-12T12:08:43.805Z,24.44
2022-10-12T12:11:25.605Z,24.43
2022-10-12T12:14:21.185Z,25.72
2022-10-12T12:16:49.976Z,25.84
2022-10-12T12:19:43.546Z,26.05
2022-10-12T12:22:50.564Z,25.39
2022-10-12T12:25:30.740Z,24.67
2022-10-12T12:28:05.776Z,24.98
2022-10-12T12:30:40.886Z,25.50
2022-10-12T12:33:26.882Z,26.06
2022-10-12T12:36:06.720Z,25.99
2022-10-12T12:38:35.214Z,24.38
2022-10-12T12:41:22.345Z,22.96
2022-10-12T12:43:56.409Z,22.06
2022-10-12T12:46:26.303Z,20.95
2022-10-12T12:48:53.248Z,21.01
2022-10-12T12:51:32.957Z,22.07
2022-10-12T12:54:06.187Z,22.40
2022-10-12T12:56:47.472Z,21.89
2022-10-12T12:59:20.457Z,23.28
2022-10-12T13:02:24.783Z,23.83
2022-10-12T13:05:44.148Z,24.92
2022-10-12T13:08:23.276Z,25.89
2022-10-12T13:11:06.164Z,26.32
2022-10-12T13:13:50.427Z,26.81
2022-10-12T13:19:26.807Z,24.07
2022-10-12T13:21:57.194Z,24.05
2022-10-12T13:24:30.133Z,25.22
2022-10-12T13:27:16.644Z,26.12
2022-10-12T13:30:09.143Z,27.01
2022-10-12T13:32:44.870Z,27.45
2022-10-12T13:35:31.762Z,27.71
2022-10-12T13:38:03.251Z,27.88
2022-10-12T13:40:33.744Z,27.48
2022-10-12T13:43:28.068Z,27.95
2022-10-12T13:45:55.101Z,27.98
2022-10-12T13:48:46.314Z,27.69
2022-10-12T13:51:25.010Z,27.68
2022-10-12T13:53:52.142Z,27.70
2022-10-12T13:56:23.291Z,27.87
2022-10-12T13:58:58.996Z,28.07
2022-10-12T14:01:26.634Z,27.95
2022-10-12T14:04:04.704Z,27.56
2022-10-12T14:06:38.629Z,27.56
2022-10-12T14:09:15.397Z,27.41
2022-10-12T14:11:43.591Z,27.50
2022-10-12T14:14:31.557Z,27.64
2022-10-12T14:16:58.597Z,27.05
2022-10-12T14:19:53.513Z,27.18
2022-10-12T14:22:25.517Z,27.10
2022-10-12T14:25:11.287Z,27.21
2022-10-12T14:27:40.479Z,27.11
2022-10-12T14:30:21.387Z,27.36
2022-10-12T14:32:50.063Z,27.21
2022-10-12T14:35:22.178Z,27.09
2022-10-12T14:37:52.065Z,27.04
2022-10-12T14:40:35.020Z,26.91
2022-10-12T14:43:05.488Z,27.08
2022-10-12T14:45:33.178Z,27.00
2022-10-12T14:48:01.843Z,26.90
2022-10-12T14:50:31.809Z,27.00
2022-10-12T14:53:07.918Z,26.83
2022-10-12T14:55:35.431Z,26.50
2022-10-12T14:58:03.967Z,26.24
2022-10-12T15:00:33.521Z,26.12
2022-10-12T15:03:01.634Z,26.22
2022-10-12T15:05:32.079Z,25.97
2022-10-12T15:08:07.672Z,25.88
2022-10-12T15:10:36.252Z,25.89
2022-10-12T15:13:04.470Z,25.66
2022-10-12T15:15:45.189Z,25.39
2022-10-12T15:18:12.320Z,24.99
2022-10-12T15:20:39.901Z,24.72
2022-10-12T15:23:07.119Z,24.44
2022-10-12T15:25:37.395Z,24.13
2022-10-12T15:28:04.610Z,23.80
2022-10-12T15:30:33.306Z,23.48
2022-10-12T15:33:03.234Z,23.09
2022-10-12T15:35:34.180Z,22.61
2022-10-12T15:38:01.651Z,21.97
2022-10-12T15:40:30.954Z,21.56
2022-10-12T15:42:58.525Z,21.04
2022-10-12T15:45:33.531Z,20.30
2022-10-12T15:48:00.930Z,19.86
2022-10-12T15:50:34.613Z,19.32
2022-10-12T15:53:01.747Z,18.69
2022-10-12T15:55:30.105Z,18.00
2022-10-12T15:57:57.577Z,17.35
2022-10-12T16:00:27.593Z,16.85
2022-10-12T16:02:56.442Z,16.30
2022-10-12T16:05:26.802Z,15.84
2022-10-12T16:07:54.879Z,15.47
2022-10-12T16:10:24.767Z,15.12
2022-10-12T16:12:53.903Z,14.75
2022-10-12T16:15:22.356Z,14.31
2022-10-12T16:17:50.388Z,13.94
2022-10-12T16:20:18.018Z,13.78
2022-10-12T16:22:45.583Z,13.58
2022-10-12T16:25:14.637Z,13.37
2022-10-12T16:27:43.597Z,13.21
2022-10-12T16:30:11.784Z,13.10
2022-10-12T16:32:39.882Z,12.91
2022-10-12T16:35:07.664Z,12.69
2022-10-12T16:37:35.258Z,12.13
2022-10-12T16:40:04.282Z,11.86
2022-10-12T16:42:32.582Z,12.17
2022-10-12T16:45:00.809Z,12.11
2022-10-12T16:47:27.971Z,12.05
2022-10-12T16:49:56.283Z,12.04
2022-10-12T16:52:24.921Z,11.85
2022-10-12T16:54:53.191Z,11.85
2022-10-12T16:57:20.994Z,11.74
2022-10-12T16:59:50.569Z,11.51
2022-10-12T17:02:19.905Z,11.30
2022-10-12T17:04:48.368Z,11.20
2022-10-12T17:07:15.590Z,11.13
2022-10-12T17:09:42.643Z,11.07
2022-10-12T17:12:09.745Z,10.94
2022-10-12T17:14:36.847Z,10.92
2022-10-12T17:17:04.496Z,10.83
2022-10-12T17:19:34.326Z,10.78
2022-10-12T17:22:04.923Z,10.72
2022-10-12T17:24:34.769Z,10.56
2022-10-12T17:27:11.450Z,10.41
2022-10-12T17:29:41.561Z,10.34
2022-10-12T17:32:10.843Z,10.33
2022-10-12T17:34:41.143Z,10.24
2022-10-12T17:37:11.783Z,10.07
2022-10-12T17:39:43.063Z,9.92
2022-10-12T17:42:10.998Z,9.90
2022-10-12T17:44:38.715Z,9.78
2022-10-12T17:47:06.178Z,9.55
2022-10-12T17:49:33.264Z,9.33
2022-10-12T17:52:02.260Z,9.28
2022-10-12T17:54:29.620Z,9.05
2022-10-12T17:56:57.786Z,9.13
2022-10-12T17:59:25.708Z,8.91
2022-10-12T18:01:53.438Z,8.57
2022-10-12T18:04:21.540Z,8.23
2022-10-12T18:06:49.258Z,8.17
2022-10-12T18:09:17.624Z,7.74
2022-10-12T18:11:44.858Z,7.78
2022-10-12T18:14:13.558Z,7.89
2022-10-12T18:16:42.246Z,7.69
2022-10-12T18:19:12.018Z,7.93
2022-10-12T18:21:39.825Z,7.96
2022-10-12T18:24:16.774Z,7.84
2022-10-12T18:26:47.903Z,7.89
2022-10-12T18:29:15.596Z,7.87
2022-10-12T18:31:42.737Z,7.88
2022-10-12T18:34:09.867Z,7.83
2022-10-12T18:36:37.374Z,7.85
2022-10-12T18:39:05.332Z,7.88
2022-10-12T18:41:32.802Z,7.92
2022-10-12T18:44:02.892Z,7.93
2022-10-12T18:46:34.257Z,7.89
2022-10-12T18:49:05.410Z,7.89
2022-10-12T18:51:38.695Z,7.87
2022-10-12T18:54:07.297Z,7.83
2022-10-12T18:56:37.357Z,7.82
2022-10-12T18:59:05.761Z,7.79
2022-10-12T19:01:34.378Z,7.73
2022-10-12T19:04:02.533Z,7.75
2022-10-12T19:06:40.360Z,7.70
2022-10-12T19:09:07.710Z,7.59
2022-10-12T19:11:35.090Z,7.43
2022-10-12T19:14:05.052Z,7.28
2022-10-12T19:16:33.888Z,7.15
2022-10-12T19:19:04.705Z,6.98
2022-10-12T19:21:32.307Z,6.87
2022-10-12T19:24:02.926Z,6.89
2022-10-12T19:26:32.749Z,6.71
2022-10-12T19:29:00.858Z,6.75
2022-10-12T19:31:31.255Z,6.78
2022-10-12T19:34:01.082Z,6.54
2022-10-12T19:36:30.085Z,6.67
2022-10-12T19:39:04.045Z,6.81
2022-10-12T19:41:32.076Z,6.70
2022-10-12T19:44:02.990Z,6.56
2022-10-12T19:46:30.234Z,6.62
2022-10-12T19:48:59.535Z,6.61
2022-10-12T19:51:28.885Z,6.67
2022-10-12T19:53:58.308Z,6.63
2022-10-12T19:56:26.859Z,6.63
2022-10-12T19:58:57.365Z,6.59
2022-10-12T20:01:27.622Z,6.50
2022-10-12T20:03:55.584Z,6.49
2022-10-12T20:06:27.346Z,6.52
2022-10-12T20:08:56.942Z,6.44
2022-10-12T20:11:25.178Z,6.43
2022-10-12T20:13:53.126Z,6.38
2022-10-12T20:16:22.496Z,6.35
2022-10-12T20:18:51.324Z,6.15
2022-10-12T20:21:22.021Z,5.84
2022-10-12T20:23:50.201Z,6.04
2022-10-12T20:26:20.818Z,5.94
2022-10-12T20:28:48.523Z,5.53
2022-10-12T20:31:15.540Z,5.74
2022-10-12T20:33:42.517Z,5.72
2022-10-12T20:36:22.754Z,5.79
2022-10-12T20:38:51.370Z,5.82
2022-10-12T20:41:18.941Z,5.75
2022-10-12T20:43:45.870Z,5.77
2022-10-12T20:46:15.982Z,5.78
2022-10-12T20:48:44.676Z,5.77
2022-10-12T20:51:45.171Z,5.80
2022-10-12T20:54:16.195Z,5.74
2022-10-12T20:56:43.642Z,5.71
2022-10-12T20:59:16.514Z,5.71
2022-10-12T21:01:43.499Z,5.68
2022-10-12T21:04:10.695Z,5.60
2022-10-12T21:06:38.556Z,5.52
2022-10-12T21:09:06.717Z,5.08
2022-10-12T21:11:34.753Z,4.64
2022-10-12T21:14:02.752Z,4.56
2022-10-12T21:16:29.997Z,4.66
2022-10-12T21:18:58.089Z,4.65
2022-10-12T21:21:25.543Z,4.44
2022-10-12T21:23:58.527Z,4.46
2022-10-12T21:26:27.801Z,4.78
2022-10-12T21:28:55.080Z,4.75
2022-10-12T21:31:23.087Z,4.66
2022-10-12T21:33:50.508Z,4.39
2022-10-12T21:36:24.565Z,4.28
2022-10-12T21:38:51.674Z,4.49
2022-10-12T21:41:24.457Z,4.72
2022-10-12T21:43:55.071Z,4.73
2022-10-12T21:46:29.015Z,4.83
2022-10-12T21:48:56.996Z,4.86
2022-10-12T21:51:25.417Z,4.88
2022-10-12T21:53:54.453Z,4.86
2022-10-12T21:56:28.063Z,4.88
2022-10-12T21:58:59.456Z,4.85
2022-10-12T22:01:30.388Z,4.80
2022-10-12T22:04:02.067Z,4.53
2022-10-12T22:06:30.459Z,4.35
2022-10-12T22:08:59.892Z,4.17
2022-10-12T22:11:28.831Z,4.09
2022-10-12T22:14:08.636Z,3.95
2022-10-12T22:16:37.082Z,3.88
2022-10-12T22:19:14.715Z,3.86
2022-10-12T22:21:42.115Z,3.89
2022-10-12T22:24:09.312Z,3.70
2022-10-12T22:26:36.777Z,3.54
2022-10-12T22:29:07.702Z,3.78
2022-10-12T22:31:35.516Z,4.00
2022-10-12T22:34:02.735Z,4.03
2022-10-12T22:36:29.765Z,4.18
2022-10-12T22:38:56.702Z,4.28
2022-10-12T22:41:23.957Z,4.31
2022-10-12T22:43:54.183Z,4.35
2022-10-12T22:46:25.840Z,4.34
2022-10-12T22:48:54.110Z,4.26
2022-10-12T22:51:31.585Z,4.31
2022-10-12T22:53:58.937Z,4.25
2022-10-12T22:56:27.746Z,4.10
2022-10-12T22:58:58.139Z,3.92
2022-10-12T23:01:26.873Z,4.14
2022-10-12T23:03:54.923Z,4.21
2022-10-12T23:06:24.892Z,4.19
2022-10-12T23:08:52.481Z,4.10
2022-10-12T23:11:22.387Z,4.07
2022-10-12T23:13:49.819Z,3.81
2022-10-12T23:16:28.599Z,3.52
2022-10-12T23:18:59.651Z,3.22
2022-10-12T23:21:28.446Z,3.16
2022-10-12T23:23:55.465Z,3.17
2022-10-12T23:26:24.927Z,3.55
2022-10-12T23:28:53.262Z,3.67
2022-10-12T23:31:25.607Z,3.78
2022-10-12T23:34:02.919Z,3.74
2022-10-12T23:36:30.982Z,3.76
2022-10-12T23:39:01.764Z,3.63
2022-10-12T23:41:29.788Z,3.67
2022-10-12T23:43:56.848Z,3.69
2022-10-12T23:46:24.865Z,3.56
2022-10-12T23:48:51.941Z,3.47
2022-10-12T23:51:18.924Z,3.59
2022-10-12T23:53:46.905Z,3.73
2022-10-12T23:56:14.942Z,3.67
2022-10-12T23:58:42.034Z,3.60
